Time;durP1;ratioP1;P1;durP2;ratioP2;P2;SDS_P1;SDS_P2;PMS_P1;PMS_P2;Temp;Humidity;BMP_temperature;BMP_pressure;BME280_temperature;BME280_humidity;BME280_pressure;Samples;Min_cycle;Max_cycle;Signal;HPM_P1;HPM_P2
2023/01/24 00:01:26;;;;;;;0.10;0.10;;;1.60;99.90;;;1.36;100.00;102070.75;4870261;29;20244;-71
2023/01/24 00:03:54;;;;;;;0.20;0.20;;;1.60;99.90;;;1.37;100.00;102060.44;4861146;29;20378;-71
2023/01/24 00:06:22;;;;;;;0.20;0.20;;;1.50;99.90;;;1.35;100.00;102064.63;4872050;29;20267;-71
2023/01/24 00:08:49;;;;;;;0.20;0.20;;;1.50;99.90;;;1.35;100.00;102066.34;4879784;29;20267;-71
2023/01/24 00:11:16;;;;;;;0.20;0.20;;;1.60;99.90;;;1.33;100.00;102063.63;4895255;29;20243;-71
2023/01/24 00:13:44;;;;;;;1.45;0.80;;;1.50;99.90;;;1.33;100.00;102071.44;4903165;29;20291;-71
2023/01/24 00:16:19;;;;;;;0.20;0.20;;;1.50;99.90;;;1.33;100.00;102074.03;4886678;29;20239;-71
2023/01/24 00:18:48;;;;;;;0.10;0.10;;;1.50;99.90;;;1.37;100.00;102076.06;4886485;29;20234;-71
2023/01/24 00:21:22;;;;;;;0.10;0.10;;;1.50;99.90;;;1.39;100.00;102066.66;4869608;29;20279;-71
2023/01/24 00:23:53;;;;;;;0.20;0.20;;;1.60;99.90;;;1.39;100.00;102061.47;4890176;29;20224;-70
2023/01/24 00:26:23;;;;;;;0.20;0.20;;;1.60;99.90;;;1.38;100.00;102050.91;4881485;29;20232;-71
2023/01/24 00:28:51;;;;;;;0.20;0.20;;;1.60;99.90;;;1.39;100.00;102051.03;4886595;29;20246;-71
2023/01/24 00:31:19;;;;;;;0.20;0.20;;;1.60;99.90;;;1.40;100.00;102049.31;4867106;29;20267;-71
2023/01/24 00:33:47;;;;;;;0.20;0.20;;;1.60;99.90;;;1.40;100.00;102047.63;4868888;29;20239;-72
2023/01/24 00:36:15;;;;;;;0.20;0.20;;;1.60;99.90;;;1.40;100.00;102046.72;4872284;29;20278;-71
2023/01/24 00:38:42;;;;;;;0.20;0.20;;;1.60;99.90;;;1.37;100.00;102036.97;4873378;29;20314;-71
2023/01/24 00:41:10;;;;;;;0.20;0.20;;;1.60;99.90;;;1.40;100.00;102042.41;4868993;29;20712;-71
2023/01/24 00:43:37;;;;;;;0.20;0.20;;;1.60;99.90;;;1.39;100.00;102045.81;4884361;29;20688;-71
2023/01/24 00:46:09;;;;;;;0.20;0.20;;;1.60;99.90;;;1.40;100.00;102055.44;4888402;29;20231;-70
2023/01/24 00:48:39;;;;;;;0.20;0.20;;;1.60;99.90;;;1.39;100.00;102056.25;4865160;29;20295;-71
2023/01/24 00:51:06;;;;;;;0.20;0.20;;;1.60;99.90;;;1.39;100.00;102055.34;4879435;29;20232;-71
2023/01/24 00:53:34;;;;;;;0.20;0.20;;;1.60;99.90;;;1.40;100.00;102057.16;4867676;29;20314;-71
2023/01/24 00:56:01;;;;;;;0.20;0.20;;;1.60;99.90;;;1.41;100.00;102061.56;4871314;29;20738;-71
2023/01/24 00:58:33;;;;;;;0.10;0.10;;;1.60;99.90;;;1.41;100.00;102051.13;4881187;29;20232;-71
2023/01/24 01:01:03;;;;;;;0.20;0.20;;;1.60;99.90;;;1.39;100.00;102044.91;4864334;29;20314;-71
2023/01/24 01:03:32;;;;;;;0.10;0.10;;;1.60;99.90;;;1.41;100.00;102051.13;4886197;29;20322;-71
2023/01/24 01:06:11;;;;;;;0.10;0.10;;;1.60;99.90;;;1.39;100.00;102045.81;4880515;29;20234;-71
2023/01/24 01:08:40;;;;;;;0.20;0.20;;;1.60;99.90;;;1.39;100.00;102051.03;4887273;29;20235;-71
2023/01/24 01:11:15;;;;;;;0.20;0.20;;;1.60;99.90;;;1.39;100.00;102058.84;4872236;29;20240;-71
2023/01/24 01:13:48;;;;;;;0.20;0.20;;;1.60;99.90;;;1.40;100.00;102059.75;4903048;29;20235;-71
2023/01/24 01:16:19;;;;;;;0.20;0.20;;;1.60;99.90;;;1.39;100.00;102070.97;4887138;29;20255;-71
2023/01/24 01:18:53;;;;;;;0.38;0.38;;;1.60;99.90;;;1.38;100.00;102058.75;4904071;29;20224;-71
2023/01/24 01:21:24;;;;;;;0.38;0.38;;;1.60;99.90;;;1.38;100.00;102070.06;4885907;29;20235;-71
2023/01/24 01:23:54;;;;;;;0.40;0.40;;;1.60;99.90;;;1.36;100.00;102063.84;4874710;29;20610;-70
2023/01/24 01:26:22;;;;;;;0.20;0.20;;;1.60;99.90;;;1.39;100.00;102079.69;4872248;29;20236;-70
2023/01/24 01:28:49;;;;;;;0.20;0.20;;;1.60;99.90;;;1.36;100.00;102060.31;4870854;29;20257;-71
2023/01/24 01:31:16;;;;;;;0.10;0.10;;;1.60;99.90;;;1.37;100.00;102063.03;4884057;29;20244;-70
2023/01/24 01:33:44;;;;;;;0.20;0.20;;;1.50;99.90;;;1.36;100.00;102063.84;4886602;29;20234;-70
2023/01/24 01:36:11;;;;;;;0.30;0.30;;;1.60;99.90;;;1.35;100.00;102064.63;4883891;29;20231;-70
2023/01/24 01:38:41;;;;;;;0.20;0.20;;;1.50;99.90;;;1.37;100.00;102073.47;4885261;29;20228;-71
2023/01/24 01:41:11;;;;;;;0.10;0.10;;;1.50;99.90;;;1.36;100.00;102069.06;4880873;29;20239;-70
2023/01/24 01:44:37;;;;;;;0.20;0.20;;;1.50;99.90;;;1.33;100.00;102066.22;4888085;29;20247;-70
2023/01/24 01:46:29;;;;;;;0.20;0.20;;;1.60;99.90;;;1.34;100.00;102075.84;4889357;29;20764;-71
2023/01/24 01:49:02;;;;;;;0.30;0.30;;;1.60;99.90;;;1.36;100.00;102073.38;4871055;29;20227;-70
2023/01/24 01:51:42;;;;;;;0.20;0.20;;;1.60;99.90;;;1.33;100.00;102066.22;4875060;29;20240;-70
2023/01/24 01:54:17;;;;;;;0.20;0.20;;;1.50;99.90;;;1.33;100.00;102070.53;4892242;29;20258;-70
2023/01/24 01:57:00;;;;;;;1.08;1.08;;;1.50;99.90;;;1.33;100.00;102074.03;4885881;29;20235;-71
2023/01/24 02:02:10;;;;;;;0.17;0.17;;;1.50;99.90;;;1.33;100.00;102075.75;5085632;23;20280;-77
2023/01/24 02:04:42;;;;;;;0.47;0.47;;;1.50;99.90;;;1.34;100.00;102074.94;4905931;29;20235;-78
2023/01/24 02:07:16;;;;;;;0.10;0.10;;;1.60;99.90;;;1.36;100.00;102079.47;4910827;29;20314;-78
2023/01/24 02:09:47;;;;;;;0.20;0.20;;;1.60;99.90;;;1.33;100.00;102071.44;4919554;29;20230;-78
2023/01/24 02:12:38;;;;;;;0.20;0.20;;;2.00;99.90;;;1.34;100.00;102080.16;4915207;29;20271;-78
2023/01/24 02:18:03;;;;;;;0.20;0.20;;;1.50;99.90;;;1.34;100.00;102099.31;4896405;29;20283;-77
2023/01/24 02:20:45;;;;;;;0.20;0.20;;;2.10;99.90;;;1.32;100.00;102102.59;4889417;29;20240;-77
2023/01/24 02:23:43;;;;;;;0.10;0.10;;;1.50;99.90;;;1.33;100.00;102104.41;4897099;29;20240;-77
2023/01/24 02:26:18;;;;;;;0.20;0.20;;;1.50;99.90;;;1.31;100.00;102106.91;4897781;29;20306;-78
2023/01/24 02:29:09;;;;;;;0.20;0.20;;;1.60;99.90;;;1.31;100.00;102099.09;4894649;29;20236;-77
2023/01/24 02:31:57;;;;;;;0.20;0.20;;;1.50;99.90;;;1.30;100.00;102102.50;4903678;28;20312;-77
2023/01/24 02:34:25;;;;;;;0.20;0.20;;;1.50;99.90;;;1.31;100.00;102104.31;4909082;28;20269;-78
2023/01/24 02:36:57;;;;;;;0.20;0.20;;;1.90;99.90;;;1.32;100.00;102105.22;4901736;29;20239;-78
2023/01/24 02:39:32;;;;;;;0.20;0.20;;;1.50;99.90;;;1.31;100.00;102104.31;4911666;29;20294;-78
2023/01/24 02:42:13;;;;;;;0.30;0.30;;;1.50;99.90;;;1.34;100.00;102112.34;4907442;29;20646;-79
2023/01/24 02:44:53;;;;;;;0.20;0.20;;;1.50;99.90;;;1.33;100.00;102115.75;4908516;28;20258;-78
2023/01/24 02:47:20;;;;;;;3.72;1.27;;;1.60;99.90;;;1.33;100.00;102109.63;4916208;29;20294;-78
2023/01/24 02:55:13;;;;;;;1.20;1.20;;;2.40;99.90;;;1.30;100.00;102118.13;4936935;28;20269;-75
2023/01/24 03:00:26;;;;;;;0.68;0.68;;;1.50;99.90;;;1.29;100.00;102121.50;4929491;29;20305;-75
2023/01/24 03:02:53;;;;;;;0.20;0.20;;;2.00;99.90;;;1.28;100.00;102112.78;4935799;28;20237;-74
2023/01/24 03:05:20;;;;;;;0.10;0.10;;;1.60;99.90;;;1.29;100.00;102111.97;4928431;29;20230;-75
2023/01/24 03:07:48;;;;;;;0.35;0.35;;;1.50;99.90;;;1.29;100.00;102111.97;4942069;28;20234;-74
2023/01/24 03:10:18;;;;;;;0.40;0.40;;;2.20;99.90;;;1.28;100.00;102109.25;4927706;29;20274;-75
2023/01/24 03:34:49;;;;;;;0.40;0.40;;;1.50;99.90;;;1.26;100.00;102108.25;4926324;29;20227;-74
2023/01/24 03:39:53;;;;;;;0.20;0.20;;;1.60;99.90;;;1.26;100.00;102108.25;4926669;28;20242;-74
2023/01/24 03:40:10;;;;;;;0.40;0.40;;;1.50;99.90;;;1.25;100.00;102104.75;4929519;28;20282;-74
2023/01/24 03:42:46;;;;;;;0.20;0.20;;;1.40;99.90;;;1.23;100.00;102102.81;4925128;28;20226;-76
2023/01/24 03:45:22;;;;;;;0.20;0.20;;;1.40;99.90;;;1.22;100.00;102106.22;4926403;28;20340;-75
2023/01/24 03:47:56;;;;;;;0.85;0.85;;;1.40;99.90;;;1.21;100.00;102104.41;4928100;29;20242;-75
2023/01/24 03:53:17;;;;;;;1.33;1.30;;;1.40;99.90;;;1.21;100.00;102107.91;4938883;28;20283;-74
2023/01/24 03:55:45;;;;;;;0.20;0.20;;;1.40;99.90;;;1.20;100.00;102098.28;4932784;29;20249;-74
2023/01/24 03:58:14;;;;;;;0.13;0.13;;;1.40;99.90;;;1.23;100.00;102101.13;4923805;28;20238;-74
2023/01/24 04:00:41;;;;;;;0.30;0.30;;;1.40;99.90;;;1.26;100.00;102103.03;4931068;29;20294;-74
2023/01/24 04:03:08;;;;;;;0.20;0.20;;;1.50;99.90;;;1.29;100.00;102098.94;4928332;29;20253;-76
2023/01/24 04:05:35;;;;;;;0.20;0.20;;;1.50;99.90;;;1.28;100.00;102091.03;4932285;28;20254;-76
2023/01/24 04:08:03;;;;;;;0.28;0.28;;;1.50;99.90;;;1.28;100.00;102093.63;4922767;28;20227;-77
2023/01/24 04:10:31;;;;;;;0.20;0.20;;;1.50;99.90;;;1.31;100.00;102099.09;4931025;28;20341;-75
2023/01/24 04:12:58;;;;;;;0.20;0.20;;;1.50;99.90;;;1.28;100.00;102098.84;4927452;28;20262;-75
2023/01/24 04:15:29;;;;;;;0.20;0.20;;;1.60;99.90;;;1.29;100.00;102104.16;4931953;28;20790;-74
2023/01/24 04:17:59;;;;;;;0.30;0.30;;;1.80;99.90;;;1.28;100.00;102091.94;4931313;28;20308;-74
2023/01/24 04:20:29;;;;;;;0.20;0.20;;;1.50;99.90;;;1.30;100.00;102092.06;4930117;29;20246;-75
2023/01/24 04:22:56;;;;;;;0.30;0.30;;;1.50;99.90;;;1.30;100.00;102092.06;4930313;28;20238;-75
2023/01/24 04:25:23;;;;;;;0.30;0.30;;;1.50;99.90;;;1.29;100.00;102093.75;4934024;28;20238;-74
2023/01/24 04:27:50;;;;;;;0.20;0.20;;;1.80;99.90;;;1.30;100.00;102089.47;4924611;28;20234;-75
2023/01/24 04:30:17;;;;;;;0.40;0.40;;;2.10;99.90;;;1.28;100.00;102089.31;4933458;28;20308;-74
2023/01/24 04:32:45;;;;;;;0.50;0.50;;;1.50;99.90;;;1.30;100.00;102084.25;4931779;28;20644;-74
2023/01/24 04:35:25;;;;;;;0.22;0.22;;;1.50;99.90;;;1.30;100.00;102089.47;4928720;29;20237;-74
2023/01/24 04:37:53;;;;;;;0.30;0.30;;;1.50;99.90;;;1.28;100.00;102088.41;4929474;28;20302;-75
2023/01/24 04:41:01;;;;;;;0.20;0.20;;;2.30;99.90;;;1.28;100.00;102088.41;4931840;29;20289;-74
2023/01/24 04:43:28;;;;;;;0.30;0.30;;;1.50;99.90;;;1.26;100.00;102092.63;4925080;28;20265;-74
2023/01/24 04:45:57;;;;;;;0.30;0.30;;;1.50;99.90;;;1.27;100.00;102086.59;4930886;28;20321;-74
2023/01/24 04:48:25;;;;;;;0.30;0.30;;;1.50;99.90;;;1.28;100.00;102088.41;4926460;28;20270;-74
2023/01/24 04:50:57;;;;;;;0.30;0.30;;;2.10;99.90;;;1.29;100.00;102088.53;4916501;29;20302;-74
2023/01/24 04:53:25;;;;;;;0.40;0.40;;;1.50;99.90;;;1.29;100.00;102087.63;4913905;29;20239;-74
2023/01/24 04:55:52;;;;;;;0.40;0.40;;;1.70;99.90;;;1.29;100.00;102085.00;4916560;28;20231;-75
2023/01/24 04:58:19;;;;;;;0.75;0.75;;;1.50;99.90;;;1.29;100.00;102088.53;4910458;29;20335;-75
2023/01/24 05:00:48;;;;;;;0.70;0.70;;;1.50;99.90;;;1.32;100.00;102092.19;4912841;29;20294;-76
2023/01/24 05:03:15;;;;;;;0.50;0.50;;;1.50;99.90;;;1.31;100.00;102082.56;4911276;28;20237;-76
2023/01/24 05:05:42;;;;;;;0.50;0.50;;;1.50;99.90;;;1.32;100.00;102071.34;4913441;29;20230;-75
2023/01/24 05:08:09;;;;;;;1.88;1.77;;;1.50;99.90;;;1.32;100.00;102074.84;4908715;29;20251;-75
2023/01/24 05:10:36;;;;;;;0.40;0.40;;;1.60;99.90;;;1.31;100.00;102074.72;4909998;29;20235;-77
2023/01/24 05:13:03;;;;;;;0.35;0.35;;;1.50;99.90;;;1.29;100.00;102078.09;4933350;29;20266;-77
2023/01/24 05:15:31;;;;;;;0.40;0.40;;;1.50;99.90;;;1.29;100.00;102080.72;4926435;29;20235;-77
2023/01/24 05:17:58;;;;;;;0.40;0.40;;;1.90;99.90;;;1.32;100.00;102085.28;4925942;29;20246;-77
2023/01/24 05:20:25;;;;;;;0.63;0.63;;;1.60;99.90;;;1.31;100.00;102078.25;4916639;29;20302;-78
2023/01/24 05:22:59;;;;;;;0.47;0.47;;;1.50;99.90;;;1.31;100.00;102083.47;4907614;29;20241;-77
2023/01/24 05:25:26;;;;;;;0.40;0.40;;;2.60;99.90;;;1.29;100.00;102085.00;4915185;29;20254;-76
2023/01/24 05:27:53;;;;;;;0.30;0.30;;;2.10;99.90;;;1.28;100.00;102083.19;4918583;28;20231;-77
2023/01/24 05:30:20;;;;;;;0.43;0.43;;;1.50;99.90;;;1.26;100.00;102093.53;4902872;29;20310;-77
2023/01/24 05:32:47;;;;;;;0.30;0.30;;;1.50;99.90;;;1.26;100.00;102098.72;4920143;28;20239;-77
2023/01/24 05:35:14;;;;;;;0.50;0.50;;;1.50;99.90;;;1.25;100.00;102099.53;4915135;28;20227;-77
2023/01/24 05:37:41;;;;;;;0.30;0.30;;;1.70;99.90;;;1.23;100.00;102103.72;4915671;29;20289;-77
2023/01/24 05:40:09;;;;;;;0.38;0.38;;;1.40;99.90;;;1.21;100.00;102101.78;4916400;29;20696;-77
2023/01/24 05:42:36;;;;;;;0.50;0.50;;;1.40;99.90;;;1.20;100.00;102108.72;4917087;29;20286;-77
2023/01/24 05:45:05;;;;;;;0.40;0.40;;;1.50;99.90;;;1.19;100.00;102111.19;4915120;28;20251;-77
2023/01/24 05:47:32;;;;;;;0.40;0.40;;;1.40;99.90;;;1.19;100.00;102119.03;4922525;29;20242;-77
2023/01/24 05:49:59;;;;;;;0.38;0.38;;;1.50;99.90;;;1.20;100.00;102123.44;4911572;29;20262;-77
2023/01/24 05:52:26;;;;;;;0.30;0.30;;;1.40;99.90;;;1.18;100.00;102114.59;4914095;29;20250;-76
2023/01/24 05:54:53;;;;;;;0.40;0.40;;;1.80;99.90;;;1.19;100.00;102119.03;4915115;29;20306;-77
2023/01/24 05:57:20;;;;;;;0.40;0.40;;;1.40;99.90;;;1.19;100.00;102124.22;4911350;29;20234;-77
2023/01/24 05:59:47;;;;;;;0.40;0.40;;;1.50;99.90;;;1.19;100.00;102132.06;4915796;29;20266;-77
2023/01/24 06:02:14;;;;;;;0.90;0.90;;;1.40;99.90;;;1.19;100.00;102126.84;4914117;29;20282;-75
2023/01/24 06:04:41;;;;;;;0.20;0.20;;;1.90;99.90;;;1.19;100.00;102135.56;4923089;28;20738;-77
2023/01/24 06:07:08;;;;;;;1.10;1.00;;;1.40;99.90;;;1.19;100.00;102138.16;4916606;29;20243;-77
2023/01/24 06:09:36;;;;;;;0.20;0.20;;;1.40;99.90;;;1.20;100.00;102141.69;4916874;29;20235;-76
2023/01/24 06:12:03;;;;;;;0.20;0.20;;;1.60;99.90;;;1.20;100.00;102139.97;4911422;29;20296;-78
2023/01/24 06:14:30;;;;;;;0.20;0.20;;;1.40;99.90;;;1.20;100.00;102146.91;4908136;29;20235;-78
2023/01/24 06:16:57;;;;;;;0.10;0.10;;;1.40;99.90;;;1.22;100.00;102155.72;4917617;29;20227;-78
2023/01/24 06:19:26;;;;;;;0.25;0.25;;;1.80;99.90;;;1.24;100.00;102154.13;4917193;28;20246;-78
2023/01/24 06:22:14;;;;;;;0.20;0.20;;;1.40;99.90;;;1.25;100.00;102155.97;4915318;29;20235;-77
2023/01/24 06:24:41;;;;;;;0.10;0.10;;;1.40;99.90;;;1.27;100.00;102154.38;4923333;29;20250;-77
2023/01/24 06:27:09;;;;;;;0.63;0.63;;;1.50;99.90;;;1.27;100.00;102162.19;4924399;28;20247;-78
2023/01/24 06:29:37;;;;;;;0.20;0.20;;;1.50;99.90;;;1.26;100.00;102157.75;4914859;29;20703;-78
2023/01/24 06:32:46;;;;;;;0.30;0.30;;;1.50;99.90;;;1.26;100.00;102161.28;4915104;29;20339;-78
2023/01/24 06:35:27;;;;;;;0.15;0.15;;;1.50;99.90;;;1.26;100.00;102165.59;4913150;28;20250;-78
2023/01/24 06:37:54;;;;;;;0.20;0.20;;;1.40;99.90;;;1.25;100.00;102162.06;4917868;29;20295;-78
2023/01/24 06:40:24;;;;;;;0.40;0.40;;;1.50;99.90;;;1.25;100.00;102169.91;4905945;29;20258;-77
2023/01/24 06:42:52;;;;;;;1.65;1.13;;;1.40;99.90;;;1.26;100.00;102161.28;4925127;28;20288;-76
2023/01/24 06:45:22;;;;;;;0.10;0.10;;;1.50;99.90;;;1.28;100.00;102169.22;4927017;29;20238;-77
2023/01/24 06:47:50;;;;;;;0.20;0.20;;;1.50;99.90;;;1.28;100.00;102166.59;4916225;28;20238;-76
2023/01/24 06:50:20;;;;;;;0.20;0.20;;;1.70;99.90;;;1.28;100.00;102162.31;4913775;29;20251;-76
2023/01/24 06:52:49;;;;;;;0.20;0.20;;;1.60;99.90;;;1.29;100.00;102171.03;4918192;29;20267;-76
2023/01/24 06:55:17;;;;;;;0.10;0.10;;;1.60;99.90;;;1.30;100.00;102175.47;4930539;28;20262;-77
2023/01/24 06:57:46;;;;;;;0.10;0.10;;;1.50;99.90;;;1.30;100.00;102170.28;4915835;29;20283;-77
2023/01/24 07:00:14;;;;;;;0.20;0.20;;;2.00;99.90;;;1.31;100.00;102171.19;4915671;29;20245;-76
2023/01/24 07:02:41;;;;;;;0.20;0.20;;;1.50;99.90;;;1.29;100.00;102171.94;4921189;28;20223;-77
2023/01/24 07:05:09;;;;;;;0.50;0.50;;;1.90;99.90;;;1.31;100.00;102179.91;4924376;28;20234;-77
2023/01/24 07:07:36;;;;;;;0.10;0.10;;;1.30;99.90;;;1.32;100.00;102173.88;4900701;29;20739;-77
2023/01/24 07:10:04;;;;;;;0.10;0.10;;;1.80;99.90;;;1.33;100.00;102180.91;4896754;29;20243;-76
2023/01/24 07:12:31;;;;;;;0.90;0.50;;;1.50;99.90;;;1.33;100.00;102180.91;4896876;29;20676;-77
2023/01/24 07:14:58;;;;;;;0.20;0.20;;;1.50;99.90;;;1.31;100.00;102186.81;4895354;29;20664;-76
2023/01/24 07:17:25;;;;;;;0.13;0.13;;;1.70;99.90;;;1.30;100.00;102180.69;4899219;29;20255;-76
2023/01/24 07:19:53;;;;;;;0.20;0.20;;;1.50;99.90;;;1.29;100.00;102179.75;4910251;29;20330;-77
2023/01/24 07:22:20;;;;;;;0.20;0.20;;;1.50;99.90;;;1.28;100.00;102177.94;4899610;29;20314;-77
2023/01/24 07:24:48;;;;;;;0.75;0.75;;;1.50;99.90;;;1.30;100.00;102178.09;4914408;29;20326;-76
2023/01/24 07:27:15;;;;;;;0.17;0.17;;;1.50;99.90;;;1.31;100.00;102184.19;4925547;29;20313;-76
2023/01/24 07:29:43;;;;;;;0.20;0.20;;;1.50;99.90;;;1.31;100.00;102186.81;4934650;28;20261;-76
2023/01/24 07:32:10;;;;;;;1.52;1.42;;;2.20;99.90;;;1.31;100.00;102192.03;4933326;28;20230;-76
2023/01/24 07:34:38;;;;;;;0.20;0.20;;;1.50;99.90;;;1.30;100.00;102196.34;4907723;29;20266;-76
2023/01/24 07:37:08;;;;;;;0.20;0.20;;;1.90;99.90;;;1.31;100.00;102200.75;4915224;29;20251;-77
2023/01/24 07:39:35;;;;;;;0.10;0.10;;;1.50;99.90;;;1.33;100.00;102203.47;4910884;29;20247;-77
2023/01/24 07:42:02;;;;;;;0.20;0.20;;;2.20;99.90;;;1.31;100.00;102210.28;4906205;29;20752;-76
2023/01/24 07:44:29;;;;;;;0.20;0.20;;;1.50;99.90;;;1.33;100.00;102206.06;4915614;29;20259;-76
2023/01/24 07:46:56;;;;;;;0.20;0.20;;;2.00;99.90;;;1.34;100.00;102213.09;4914687;29;20325;-77
2023/01/24 07:49:23;;;;;;;0.20;0.20;;;1.50;99.90;;;1.34;100.00;102211.41;4915581;29;20235;-77
2023/01/24 07:51:51;;;;;;;0.30;0.30;;;1.60;99.90;;;1.38;100.00;102212.53;4908245;29;20671;-76
2023/01/24 07:54:19;;;;;;;0.20;0.20;;;1.50;99.90;;;1.39;100.00;102210.03;4923406;28;20285;-76
2023/01/24 07:56:47;;;;;;;0.15;0.15;;;1.70;99.90;;;1.39;100.00;102202.22;4920683;29;20245;-75
2023/01/24 07:59:14;;;;;;;0.32;0.32;;;1.80;99.90;;;1.39;100.00;102217.88;4913864;29;20677;-77
2023/01/24 08:01:41;;;;;;;0.35;0.35;;;1.50;99.90;;;1.40;100.00;102223.97;4912288;29;20238;-77
2023/01/24 08:04:09;;;;;;;0.32;0.32;;;1.60;99.90;;;1.38;100.00;102229.09;4922069;28;20607;-77
2023/01/24 08:06:38;;;;;;;0.20;0.20;;;2.40;99.90;;;1.38;100.00;102236.00;4913110;29;20259;-76
2023/01/24 08:09:05;;;;;;;0.20;0.20;;;1.60;99.90;;;1.40;100.00;102231.81;4911495;29;20231;-76
2023/01/24 08:11:33;;;;;;;0.20;0.20;;;1.60;99.90;;;1.40;100.00;102239.63;4933631;28;20313;-76
2023/01/24 08:14:00;;;;;;;0.60;0.60;;;2.40;99.90;;;1.41;100.00;102231.91;4923124;28;20290;-76
2023/01/24 08:16:27;;;;;;;0.20;0.20;;;1.60;99.90;;;1.43;100.00;102240.75;4916810;29;20262;-76
2023/01/24 08:18:55;;;;;;;0.20;0.20;;;1.60;99.90;;;1.46;100.00;102235.78;4922496;28;20289;-76
2023/01/24 08:21:22;;;;;;;0.10;0.10;;;1.60;99.90;;;1.48;100.00;102236.78;4922246;28;20239;-77
2023/01/24 08:23:49;;;;;;;0.20;0.20;;;1.70;99.90;;;1.48;100.00;102228.97;4914094;29;20727;-76
2023/01/24 08:26:17;;;;;;;0.35;0.35;;;1.70;99.90;;;1.49;100.00;102233.41;4912200;29;20243;-77
2023/01/24 08:28:44;;;;;;;0.20;0.20;;;1.70;99.90;;;1.50;100.00;102239.53;4911876;29;20266;-76
2023/01/24 08:31:12;;;;;;;0.10;0.10;;;1.70;99.90;;;1.51;100.00;102241.34;4922829;28;20235;-77
2023/01/24 08:33:40;;;;;;;0.20;0.20;;;1.70;99.90;;;1.51;100.00;102250.06;4923536;28;20325;-77
2023/01/24 08:36:07;;;;;;;0.20;0.20;;;1.70;99.90;;;1.54;100.00;102252.00;4905317;29;20264;-77
2023/01/24 08:38:34;;;;;;;1.00;1.00;;;1.70;99.90;;;1.54;100.00;102262.41;4913270;29;20302;-76
2023/01/24 08:41:05;;;;;;;0.40;0.40;;;1.70;99.90;;;1.53;100.00;102258.00;4926999;28;20323;-76
2023/01/24 08:43:35;;;;;;;0.20;0.20;;;1.80;99.90;;;1.55;100.00;102259.03;4909484;28;20242;-76
2023/01/24 08:46:02;;;;;;;0.20;0.20;;;1.80;99.90;;;1.58;100.00;102261.84;4908012;29;20309;-76
2023/01/24 08:48:30;;;;;;;0.20;0.20;;;1.80;99.90;;;1.60;100.00;102257.66;4908712;29;20273;-77
2023/01/24 08:50:57;;;;;;;0.10;0.10;;;1.80;99.90;;;1.65;100.00;102255.38;4924996;28;20243;-75
2023/01/24 08:53:24;;;;;;;0.10;0.10;;;1.80;99.90;;;1.67;100.00;102251.19;4911751;29;20273;-76
2023/01/24 08:55:51;;;;;;;0.20;0.20;;;2.10;99.90;;;1.67;100.00;102261.63;4913070;28;20709;-77
2023/01/24 08:58:20;;;;;;;0.10;0.10;;;1.80;99.90;;;1.68;100.00;102266.03;4922486;29;20269;-76
2023/01/24 09:00:47;;;;;;;0.10;0.10;;;1.90;99.90;;;1.66;100.00;102272.84;4921094;28;20252;-76
2023/01/24 09:03:18;;;;;;;0.20;0.20;;;1.80;99.90;;;1.70;100.00;102274.88;4911521;29;20243;-77
2023/01/24 09:05:45;;;;;;;0.10;0.10;;;1.90;99.90;;;1.74;100.00;102276.94;4919377;29;20301;-77
2023/01/24 09:08:12;;;;;;;0.10;0.10;;;1.90;99.90;;;1.75;100.00;102274.44;4912897;29;20642;-77
2023/01/24 09:10:39;;;;;;;0.20;0.20;;;1.90;99.90;;;1.78;100.00;102292.91;4915507;29;20247;-77
2023/01/24 09:13:07;;;;;;;0.10;0.10;;;2.00;99.90;;;1.79;100.00;102291.22;4894046;29;20295;-77
2023/01/24 09:15:34;;;;;;;0.20;0.20;;;2.00;99.90;;;1.79;100.00;102289.50;4898958;29;20239;-77
2023/01/24 09:18:02;;;;;;;0.20;0.20;;;2.20;99.90;;;1.83;100.00;102295.88;4911685;28;20239;-77
2023/01/24 09:20:29;;;;;;;0.20;0.20;;;2.20;99.90;;;1.85;100.00;102296.88;4910659;29;20241;-77
2023/01/24 09:22:56;;;;;;;0.20;0.20;;;2.00;99.90;;;1.89;100.00;102307.66;4915488;29;20311;-77
2023/01/24 09:25:24;;;;;;;0.10;0.10;;;2.00;99.90;;;1.90;100.00;102300.75;4913233;29;20246;-77
2023/01/24 09:27:55;;;;;;;0.10;0.10;;;1.90;99.90;;;1.88;100.00;102292.81;4927443;29;20234;-76
2023/01/24 09:30:23;;;;;;;0.57;0.57;;;2.10;99.90;;;1.90;100.00;102300.75;4911781;29;20239;-76
2023/01/24 09:32:51;;;;;;;0.10;0.10;;;2.20;99.90;;;1.91;100.00;102299.94;4919156;28;20378;-76
2023/01/24 09:35:18;;;;;;;0.10;0.10;;;2.20;99.90;;;1.93;100.00;102295.75;4924439;29;20250;-76
2023/01/24 09:37:45;;;;;;;0.20;0.20;;;2.10;99.90;;;1.95;100.00;102303.69;4930454;28;20230;-76
2023/01/24 09:40:29;;;;;;;0.10;0.10;;;2.30;99.90;;;1.97;100.00;102299.50;4892484;29;20263;-76
2023/01/24 09:43:09;;;;;;;0.20;0.20;;;2.20;99.90;;;1.99;100.00;102300.50;4909358;29;20286;-76
2023/01/24 09:45:52;;;;;;;0.10;0.10;;;2.10;99.90;;;2.03;100.00;102307.75;4923286;29;20255;-75
2023/01/24 09:48:20;;;;;;;1.88;1.17;;;2.20;99.90;;;2.01;100.00;102315.47;4912218;29;20292;-77
2023/01/24 09:50:51;;;;;;;0.10;0.10;;;2.40;99.90;;;1.99;100.00;102310.94;4912062;29;20239;-77
2023/01/24 09:53:25;;;;;;;0.63;0.63;;;2.20;99.90;;;1.99;100.00;102318.78;4914882;29;20297;-76
2023/01/24 09:55:53;;;;;;;0.20;0.20;;;2.50;99.90;;;2.00;100.00;102316.28;4926199;28;20267;-76
2023/01/24 09:58:39;;;;;;;1.48;1.38;;;2.20;99.90;;;1.99;100.00;102309.25;4913661;29;20250;-77
2023/01/24 10:01:14;;;;;;;1.55;1.55;;;2.20;99.90;;;2.01;100.00;102320.69;4911464;29;20287;-77
2023/01/24 10:03:42;;;;;;;0.20;0.20;;;2.10;99.90;;;2.00;100.00;102317.97;4911161;29;20250;-76
2023/01/24 10:06:25;;;;;;;0.20;0.20;;;2.20;99.90;;;2.01;100.00;102314.56;4908937;29;22294;-77
2023/01/24 10:09:18;;;;;;;0.17;0.17;;;2.20;99.90;;;2.00;100.00;102318.88;4900886;29;20249;-76
2023/01/24 10:11:51;;;;;;;0.20;0.20;;;2.20;99.90;;;2.02;100.00;102325.13;4921313;29;20242;-76
2023/01/24 10:14:47;;;;;;;0.20;0.20;;;2.20;99.90;;;2.03;100.00;102319.09;4915095;29;20631;-76
2023/01/24 10:17:24;;;;;;;0.20;0.20;;;2.20;99.90;;;2.01;100.00;102323.31;4916520;28;20270;-76
2023/01/24 10:20:39;;;;;;;0.20;0.20;;;2.20;99.90;;;2.02;100.00;102319.00;4922187;29;20246;-76
2023/01/24 10:23:14;;;;;;;0.10;0.10;;;2.20;99.90;;;2.02;100.00;102319.91;4875163;29;20308;-76
2023/01/24 10:25:58;;;;;;;0.47;0.47;;;2.20;99.90;;;2.04;100.00;102320.00;4919537;28;20311;-76
2023/01/24 10:28:41;;;;;;;0.20;0.20;;;2.20;99.90;;;2.04;100.00;102313.09;4904768;29;20270;-75
2023/01/24 10:31:14;;;;;;;0.13;0.13;;;2.20;99.90;;;2.06;100.00;102323.66;4914670;29;20329;-76
2023/01/24 10:33:48;;;;;;;0.20;0.20;;;2.20;99.90;;;2.08;100.00;102322.06;4908223;29;20238;-76
2023/01/24 10:36:43;;;;;;;0.10;0.10;;;2.30;99.90;;;2.05;100.00;102325.34;4903991;29;20246;-77
2023/01/24 10:39:11;;;;;;;0.20;0.20;;;2.20;99.90;;;2.08;100.00;102324.66;4912612;29;20243;-75
2023/01/24 10:41:39;;;;;;;0.20;0.20;;;2.20;99.90;;;2.06;100.00;102321.03;4914029;29;20239;-76
2023/01/24 10:44:14;;;;;;;0.20;0.20;;;2.20;99.90;;;2.08;100.00;102324.66;4905712;29;20273;-76
2023/01/24 10:47:16;;;;;;;0.10;0.10;;;2.30;99.90;;;2.07;100.00;102322.84;4905186;29;20286;-76
2023/01/24 10:49:51;;;;;;;0.10;0.10;;;2.30;99.90;;;2.09;100.00;102321.25;4912325;29;20227;-75
2023/01/24 10:52:21;;;;;;;0.10;0.10;;;2.40;99.90;;;2.11;100.00;102330.09;4903390;29;20242;-76
2023/01/24 10:55:01;;;;;;;0.10;0.10;;;2.30;99.90;;;2.09;100.00;102326.47;4917048;29;20294;-75
2023/01/24 10:57:48;;;;;;;0.15;0.15;;;2.30;99.90;;;2.11;100.00;102323.19;4910295;29;20695;-75
2023/01/24 11:00:32;;;;;;;0.20;0.20;;;2.30;99.90;;;2.11;100.00;102324.88;4910924;29;20331;-75
2023/01/24 11:03:21;;;;;;;0.10;0.10;;;2.30;99.90;;;2.12;100.00;102314.56;4913954;29;20274;-76
2023/01/24 11:05:52;;;;;;;0.30;0.30;;;2.90;99.90;;;2.14;100.00;102322.50;4908248;29;20295;-76
2023/01/24 11:08:23;;;;;;;0.20;0.20;;;2.30;99.90;;;2.16;100.00;102321.81;4903972;29;20240;-76
2023/01/24 11:10:54;;;;;;;3.20;0.93;;;2.30;99.90;;;2.14;100.00;102326.03;4910467;29;20253;-75
2023/01/24 11:13:39;;;;;;;0.20;0.20;;;2.50;99.90;;;2.17;100.00;102320.13;4910643;29;20238;-75
2023/01/24 11:16:15;;;;;;;0.20;0.20;;;2.30;99.90;;;2.16;100.00;102316.59;4923080;28;20223;-75